Lime Rock, Pennsylvania
Current Conditions -  °F | °C
As of 5:53 PM on Friday 31 Oct 2014 (Local Time) from KLNS Reporting Station
Few Clouds Few Clouds  
Wind Chill: 49°   Ceiling: Unl
Heat Index: 49°   Visibility: 10mi
Dew Point: 31°   Wind: 3mph
Humidity: 50%   Direction: 20°NNE
Pressure: 29.88"   Gusts: NA
Location:  40.1769°N, 76.295°W
Report Text: KLNS 312153Z 02003KT 10SM FEW060 09/M01 A2988 RMK AO2 SLP119 T00941006
Loading
Personal Weather Stations






























Interactive Weather Map
Tropical Storm Tracking
New forecast layout! Learn more

10-Day Weather Forecast

Advertisements
Track Severe Weather on mobile